首页
METAR-TAF:

METAR-TAF

机场 :

Puvirnituq, 魁北克, 加拿大

纬度: 60-03N, 经度: 077-17W, 海拔: 23米

当前天气观测

该预报发布于1小时和20分钟前的23:00 UTC
风速16节,风向东北,有时为22节阵风
温度 4°C
湿度 56%
气压 1017 hPa
能見度: 14.5公里
天空无云

METAR: CYPX 202300Z AUTO 05016G22KT 9SM CLR 04/M04 A3002 RMK SLP171

时间: 20:20 (00:20 UTC)

预报

该预报发布于40分钟前的23:40 UTC
预报有效从21日的 00点(UTC)到 21日的 12点(UTC)
风速12节,风向东北,有时为22节阵风
能見度: 10公里
天空无云
短暂存在
从 21日的 00点(UTC)到 21日的 12点(UTC)
能見度: 8.0公里
轻雾

TAF: CYPX 202340Z 2100/2112 05012G22KT P6SM SKC TEMPO 2100/2112 5SM BR RMK FCST BASED ON AUTO OBS. NXT FCST BY 210600Z

超过4000个机场的气象观测和天气预报(METAR&TAF报告)。

可查询的气象台以黄色和红色小点在地图上表示。

将鼠标移到小点上方,可查看气象台名称。

然后点击查看天气观测和预报。

如需切换地图:点击带黑十字的绿色按钮放大地图;点击带横线的绿色按钮缩小地图;或者点击绿色箭头查看邻近地区的地图。


METAR-TAF: